sensor_id;sensor_type;location;lat;lon;timestamp;P1;durP1;ratioP1;P2;durP2;ratioP2
15905;SDS011;8051;50.820;4.884;2023-04-24T00:02:11;29.83;;;27.07;;
15905;SDS011;8051;50.820;4.884;2023-04-24T00:04:38;29.17;;;26.43;;
15905;SDS011;8051;50.820;4.884;2023-04-24T00:07:06;28.83;;;26.23;;
15905;SDS011;8051;50.820;4.884;2023-04-24T00:09:34;30.87;;;27.80;;
15905;SDS011;8051;50.820;4.884;2023-04-24T00:12:03;30.13;;;27.30;;
15905;SDS011;8051;50.820;4.884;2023-04-24T00:14:31;30.57;;;27.40;;
15905;SDS011;8051;50.820;4.884;2023-04-24T00:17:00;31.67;;;28.57;;
15905;SDS011;8051;50.820;4.884;2023-04-24T00:19:28;31.93;;;28.97;;
15905;SDS011;8051;50.820;4.884;2023-04-24T00:21:55;32.23;;;29.07;;
15905;SDS011;8051;50.820;4.884;2023-04-24T00:24:23;32.67;;;29.37;;
15905;SDS011;8051;50.820;4.884;2023-04-24T00:26:50;31.80;;;28.87;;
15905;SDS011;8051;50.820;4.884;2023-04-24T00:29:19;32.97;;;29.83;;
15905;SDS011;8051;50.820;4.884;2023-04-24T00:31:46;31.27;;;27.90;;
15905;SDS011;8051;50.820;4.884;2023-04-24T00:34:14;32.03;;;29.20;;
15905;SDS011;8051;50.820;4.884;2023-04-24T00:36:41;32.67;;;29.60;;
15905;SDS011;8051;50.820;4.884;2023-04-24T00:39:09;33.73;;;30.33;;
15905;SDS011;8051;50.820;4.884;2023-04-24T00:41:36;35.10;;;29.70;;
15905;SDS011;8051;50.820;4.884;2023-04-24T00:44:04;31.47;;;28.57;;
15905;SDS011;8051;50.820;4.884;2023-04-24T00:46:33;33.03;;;29.17;;
15905;SDS011;8051;50.820;4.884;2023-04-24T00:49:00;30.90;;;28.20;;
15905;SDS011;8051;50.820;4.884;2023-04-24T00:51:28;30.80;;;28.00;;
15905;SDS011;8051;50.820;4.884;2023-04-24T00:53:57;32.30;;;29.00;;
15905;SDS011;8051;50.820;4.884;2023-04-24T00:56:25;31.90;;;29.17;;
15905;SDS011;8051;50.820;4.884;2023-04-24T00:58:52;32.27;;;28.93;;
15905;SDS011;8051;50.820;4.884;2023-04-24T01:01:20;31.60;;;28.57;;
15905;SDS011;8051;50.820;4.884;2023-04-24T01:03:50;34.90;;;29.37;;
15905;SDS011;8051;50.820;4.884;2023-04-24T01:06:18;32.07;;;29.03;;
15905;SDS011;8051;50.820;4.884;2023-04-24T01:08:46;31.80;;;28.63;;
15905;SDS011;8051;50.820;4.884;2023-04-24T01:11:14;31.83;;;28.43;;
15905;SDS011;8051;50.820;4.884;2023-04-24T01:13:41;30.40;;;27.53;;
15905;SDS011;8051;50.820;4.884;2023-04-24T01:16:09;31.70;;;28.53;;
15905;SDS011;8051;50.820;4.884;2023-04-24T01:18:36;33.40;;;27.97;;
15905;SDS011;8051;50.820;4.884;2023-04-24T01:21:06;31.53;;;28.50;;
15905;SDS011;8051;50.820;4.884;2023-04-24T01:23:37;31.40;;;28.43;;
15905;SDS011;8051;50.820;4.884;2023-04-24T01:26:05;32.50;;;29.80;;
15905;SDS011;8051;50.820;4.884;2023-04-24T01:28:32;31.97;;;28.87;;
15905;SDS011;8051;50.820;4.884;2023-04-24T01:31:00;31.70;;;28.57;;
15905;SDS011;8051;50.820;4.884;2023-04-24T01:33:27;30.33;;;27.53;;
15905;SDS011;8051;50.820;4.884;2023-04-24T01:35:55;32.27;;;28.90;;
15905;SDS011;8051;50.820;4.884;2023-04-24T01:38:24;31.50;;;28.30;;
15905;SDS011;8051;50.820;4.884;2023-04-24T01:40:53;30.70;;;27.57;;
15905;SDS011;8051;50.820;4.884;2023-04-24T01:43:20;31.27;;;28.10;;
15905;SDS011;8051;50.820;4.884;2023-04-24T01:45:48;32.83;;;27.50;;
15905;SDS011;8051;50.820;4.884;2023-04-24T01:48:16;31.63;;;28.53;;
15905;SDS011;8051;50.820;4.884;2023-04-24T01:50:43;29.63;;;26.47;;
15905;SDS011;8051;50.820;4.884;2023-04-24T01:53:11;29.97;;;27.07;;
15905;SDS011;8051;50.820;4.884;2023-04-24T01:55:38;30.47;;;27.67;;
15905;SDS011;8051;50.820;4.884;2023-04-24T01:58:08;29.03;;;25.93;;
15905;SDS011;8051;50.820;4.884;2023-04-24T02:00:36;30.57;;;25.53;;
15905;SDS011;8051;50.820;4.884;2023-04-24T02:03:03;27.57;;;23.30;;
15905;SDS011;8051;50.820;4.884;2023-04-24T02:05:31;27.20;;;24.67;;
15905;SDS011;8051;50.820;4.884;2023-04-24T02:07:58;24.73;;;22.83;;
15905;SDS011;8051;50.820;4.884;2023-04-24T02:10:25;24.13;;;21.93;;
15905;SDS011;8051;50.820;4.884;2023-04-24T02:12:53;27.00;;;23.97;;
15905;SDS011;8051;50.820;4.884;2023-04-24T02:15:22;25.23;;;22.67;;
15905;SDS011;8051;50.820;4.884;2023-04-24T02:17:49;26.17;;;21.90;;
15905;SDS011;8051;50.820;4.884;2023-04-24T02:20:17;25.23;;;22.67;;
15905;SDS011;8051;50.820;4.884;2023-04-24T02:22:44;26.50;;;24.03;;
15905;SDS011;8051;50.820;4.884;2023-04-24T02:25:12;26.40;;;23.40;;
15905;SDS011;8051;50.820;4.884;2023-04-24T02:27:39;26.20;;;23.50;;
15905;SDS011;8051;50.820;4.884;2023-04-24T02:30:07;26.10;;;23.60;;
15905;SDS011;8051;50.820;4.884;2023-04-24T02:32:37;31.43;;;24.33;;
15905;SDS011;8051;50.820;4.884;2023-04-24T02:35:05;27.50;;;24.67;;
15905;SDS011;8051;50.820;4.884;2023-04-24T02:37:33;27.07;;;24.33;;
15905;SDS011;8051;50.820;4.884;2023-04-24T02:40:01;28.43;;;25.23;;
15905;SDS011;8051;50.820;4.884;2023-04-24T02:42:29;28.13;;;25.37;;
15905;SDS011;8051;50.820;4.884;2023-04-24T02:44:56;26.70;;;24.13;;
15905;SDS011;8051;50.820;4.884;2023-04-24T02:47:23;29.13;;;26.27;;
15905;SDS011;8051;50.820;4.884;2023-04-24T02:49:52;28.40;;;25.50;;
15905;SDS011;8051;50.820;4.884;2023-04-24T02:52:19;27.67;;;25.00;;
15905;SDS011;8051;50.820;4.884;2023-04-24T02:54:47;30.17;;;26.67;;
15905;SDS011;8051;50.820;4.884;2023-04-24T02:57:14;28.20;;;25.20;;
15905;SDS011;8051;50.820;4.884;2023-04-24T02:59:42;28.77;;;25.57;;
15905;SDS011;8051;50.820;4.884;2023-04-24T03:02:09;32.93;;;27.53;;
15905;SDS011;8051;50.820;4.884;2023-04-24T03:04:37;29.20;;;26.10;;
15905;SDS011;8051;50.820;4.884;2023-04-24T03:07:06;28.03;;;25.43;;
15905;SDS011;8051;50.820;4.884;2023-04-24T03:09:34;28.27;;;25.13;;
15905;SDS011;8051;50.820;4.884;2023-04-24T03:12:01;32.03;;;25.00;;
15905;SDS011;8051;50.820;4.884;2023-04-24T03:14:29;28.93;;;26.07;;
15905;SDS011;8051;50.820;4.884;2023-04-24T03:16:57;31.23;;;25.83;;
15905;SDS011;8051;50.820;4.884;2023-04-24T03:19:25;28.77;;;24.93;;
15905;SDS011;8051;50.820;4.884;2023-04-24T03:21:52;27.67;;;24.97;;
15905;SDS011;8051;50.820;4.884;2023-04-24T03:24:21;27.17;;;24.50;;
15905;SDS011;8051;50.820;4.884;2023-04-24T03:26:48;26.60;;;23.90;;
15905;SDS011;8051;50.820;4.884;2023-04-24T03:29:16;26.03;;;23.30;;
15905;SDS011;8051;50.820;4.884;2023-04-24T03:31:43;25.70;;;23.13;;
15905;SDS011;8051;50.820;4.884;2023-04-24T03:34:11;27.67;;;22.97;;
15905;SDS011;8051;50.820;4.884;2023-04-24T03:36:38;27.03;;;22.73;;
15905;SDS011;8051;50.820;4.884;2023-04-24T03:39:05;26.90;;;23.30;;
15905;SDS011;8051;50.820;4.884;2023-04-24T03:41:34;27.07;;;23.17;;
15905;SDS011;8051;50.820;4.884;2023-04-24T03:44:02;26.27;;;23.73;;
15905;SDS011;8051;50.820;4.884;2023-04-24T03:46:29;30.70;;;23.40;;
15905;SDS011;8051;50.820;4.884;2023-04-24T03:48:57;27.17;;;24.27;;
15905;SDS011;8051;50.820;4.884;2023-04-24T03:51:24;26.70;;;23.90;;
15905;SDS011;8051;50.820;4.884;2023-04-24T03:53:53;28.20;;;23.83;;
15905;SDS011;8051;50.820;4.884;2023-04-24T03:56:20;25.00;;;22.37;;
15905;SDS011;8051;50.820;4.884;2023-04-24T03:58:49;24.63;;;21.27;;
15905;SDS011;8051;50.820;4.884;2023-04-24T04:01:16;24.33;;;21.63;;
15905;SDS011;8051;50.820;4.884;2023-04-24T04:03:45;21.77;;;19.47;;
15905;SDS011;8051;50.820;4.884;2023-04-24T04:06:13;23.10;;;20.90;;
15905;SDS011;8051;50.820;4.884;2023-04-24T04:08:40;26.97;;;19.97;;
15905;SDS011;8051;50.820;4.884;2023-04-24T04:11:08;20.57;;;18.47;;
15905;SDS011;8051;50.820;4.884;2023-04-24T04:13:35;20.63;;;18.73;;
15905;SDS011;8051;50.820;4.884;2023-04-24T04:16:04;24.40;;;20.20;;
15905;SDS011;8051;50.820;4.884;2023-04-24T04:18:31;22.13;;;19.67;;
15905;SDS011;8051;50.820;4.884;2023-04-24T04:20:59;21.33;;;19.03;;
15905;SDS011;8051;50.820;4.884;2023-04-24T04:23:26;21.90;;;19.63;;
15905;SDS011;8051;50.820;4.884;2023-04-24T04:25:54;21.87;;;19.33;;
15905;SDS011;8051;50.820;4.884;2023-04-24T04:28:22;20.57;;;18.43;;
15905;SDS011;8051;50.820;4.884;2023-04-24T04:30:49;16.93;;;15.13;;
15905;SDS011;8051;50.820;4.884;2023-04-24T04:33:20;18.60;;;15.57;;
15905;SDS011;8051;50.820;4.884;2023-04-24T04:35:47;22.07;;;17.27;;
15905;SDS011;8051;50.820;4.884;2023-04-24T04:38:17;19.50;;;17.60;;
15905;SDS011;8051;50.820;4.884;2023-04-24T04:40:45;24.23;;;18.63;;
15905;SDS011;8051;50.820;4.884;2023-04-24T04:43:12;18.77;;;16.93;;
15905;SDS011;8051;50.820;4.884;2023-04-24T04:45:40;17.83;;;15.93;;
15905;SDS011;8051;50.820;4.884;2023-04-24T04:48:08;17.37;;;15.60;;
15905;SDS011;8051;50.820;4.884;2023-04-24T04:50:40;19.23;;;14.27;;
15905;SDS011;8051;50.820;4.884;2023-04-24T04:53:07;18.83;;;14.90;;
15905;SDS011;8051;50.820;4.884;2023-04-24T04:55:35;15.50;;;13.93;;
15905;SDS011;8051;50.820;4.884;2023-04-24T04:58:02;16.47;;;14.67;;
15905;SDS011;8051;50.820;4.884;2023-04-24T05:00:30;19.23;;;14.50;;
15905;SDS011;8051;50.820;4.884;2023-04-24T05:03:00;15.50;;;13.57;;
15905;SDS011;8051;50.820;4.884;2023-04-24T05:05:28;14.33;;;12.83;;
15905;SDS011;8051;50.820;4.884;2023-04-24T05:07:57;14.47;;;13.17;;
15905;SDS011;8051;50.820;4.884;2023-04-24T05:10:24;15.10;;;13.40;;
15905;SDS011;8051;50.820;4.884;2023-04-24T05:12:52;14.47;;;13.20;;
15905;SDS011;8051;50.820;4.884;2023-04-24T05:15:19;16.47;;;13.90;;
15905;SDS011;8051;50.820;4.884;2023-04-24T05:17:47;14.83;;;13.43;;
15905;SDS011;8051;50.820;4.884;2023-04-24T05:20:14;15.87;;;14.33;;
15905;SDS011;8051;50.820;4.884;2023-04-24T05:22:42;16.23;;;13.40;;
15905;SDS011;8051;50.820;4.884;2023-04-24T05:25:11;15.50;;;14.20;;
15905;SDS011;8051;50.820;4.884;2023-04-24T05:27:39;16.67;;;15.27;;
15905;SDS011;8051;50.820;4.884;2023-04-24T05:30:07;17.07;;;15.47;;
15905;SDS011;8051;50.820;4.884;2023-04-24T05:32:36;18.30;;;16.80;;
15905;SDS011;8051;50.820;4.884;2023-04-24T05:35:03;17.17;;;15.67;;
15905;SDS011;8051;50.820;4.884;2023-04-24T05:37:31;18.40;;;16.53;;
15905;SDS011;8051;50.820;4.884;2023-04-24T05:39:59;18.53;;;16.67;;
15905;SDS011;8051;50.820;4.884;2023-04-24T05:42:28;17.83;;;16.23;;
15905;SDS011;8051;50.820;4.884;2023-04-24T05:44:55;17.60;;;16.20;;
15905;SDS011;8051;50.820;4.884;2023-04-24T05:47:23;24.73;;;21.83;;
15905;SDS011;8051;50.820;4.884;2023-04-24T05:49:51;20.10;;;18.07;;
15905;SDS011;8051;50.820;4.884;2023-04-24T05:52:19;21.40;;;19.23;;
15905;SDS011;8051;50.820;4.884;2023-04-24T05:54:47;23.07;;;20.63;;
15905;SDS011;8051;50.820;4.884;2023-04-24T05:57:14;22.40;;;18.70;;
15905;SDS011;8051;50.820;4.884;2023-04-24T05:59:43;23.90;;;21.43;;
15905;SDS011;8051;50.820;4.884;2023-04-24T06:02:10;21.13;;;19.03;;
15905;SDS011;8051;50.820;4.884;2023-04-24T06:04:38;24.57;;;20.33;;
15905;SDS011;8051;50.820;4.884;2023-04-24T06:07:05;21.03;;;19.13;;
15905;SDS011;8051;50.820;4.884;2023-04-24T06:09:32;25.77;;;22.40;;
15905;SDS011;8051;50.820;4.884;2023-04-24T06:12:00;22.93;;;20.70;;
15905;SDS011;8051;50.820;4.884;2023-04-24T06:14:27;24.43;;;21.67;;
15905;SDS011;8051;50.820;4.884;2023-04-24T06:16:56;23.27;;;20.87;;
15905;SDS011;8051;50.820;4.884;2023-04-24T06:19:24;24.07;;;21.57;;
15905;SDS011;8051;50.820;4.884;2023-04-24T06:21:51;23.53;;;21.63;;
15905;SDS011;8051;50.820;4.884;2023-04-24T06:24:19;25.13;;;21.23;;
15905;SDS011;8051;50.820;4.884;2023-04-24T06:26:46;25.90;;;22.73;;
15905;SDS011;8051;50.820;4.884;2023-04-24T06:29:14;26.60;;;24.03;;
15905;SDS011;8051;50.820;4.884;2023-04-24T06:31:42;27.97;;;25.17;;
15905;SDS011;8051;50.820;4.884;2023-04-24T06:34:10;26.80;;;22.37;;
15905;SDS011;8051;50.820;4.884;2023-04-24T06:36:38;25.33;;;22.80;;
15905;SDS011;8051;50.820;4.884;2023-04-24T06:39:05;25.30;;;22.83;;
15905;SDS011;8051;50.820;4.884;2023-04-24T06:41:33;25.03;;;22.40;;
15905;SDS011;8051;50.820;4.884;2023-04-24T06:44:00;26.40;;;23.57;;
15905;SDS011;8051;50.820;4.884;2023-04-24T06:46:28;30.10;;;25.67;;
15905;SDS011;8051;50.820;4.884;2023-04-24T06:48:55;26.17;;;23.33;;
15905;SDS011;8051;50.820;4.884;2023-04-24T06:51:24;29.20;;;25.70;;
15905;SDS011;8051;50.820;4.884;2023-04-24T06:53:53;25.97;;;23.43;;
15905;SDS011;8051;50.820;4.884;2023-04-24T06:56:21;31.67;;;25.70;;
15905;SDS011;8051;50.820;4.884;2023-04-24T06:58:48;29.93;;;23.53;;
15905;SDS011;8051;50.820;4.884;2023-04-24T07:01:16;27.63;;;24.83;;
15905;SDS011;8051;50.820;4.884;2023-04-24T07:03:43;29.97;;;26.07;;
15905;SDS011;8051;50.820;4.884;2023-04-24T07:06:11;26.57;;;23.70;;
15905;SDS011;8051;50.820;4.884;2023-04-24T07:08:40;27.20;;;24.40;;
15905;SDS011;8051;50.820;4.884;2023-04-24T07:11:08;27.03;;;24.20;;
15905;SDS011;8051;50.820;4.884;2023-04-24T07:13:36;28.87;;;25.97;;
15905;SDS011;8051;50.820;4.884;2023-04-24T07:16:07;29.77;;;26.00;;
15905;SDS011;8051;50.820;4.884;2023-04-24T07:18:34;30.73;;;25.73;;
15905;SDS011;8051;50.820;4.884;2023-04-24T07:21:02;30.67;;;25.47;;
15905;SDS011;8051;50.820;4.884;2023-04-24T07:23:30;28.47;;;24.73;;
15905;SDS011;8051;50.820;4.884;2023-04-24T07:25:59;32.27;;;25.43;;
15905;SDS011;8051;50.820;4.884;2023-04-24T07:28:26;39.83;;;25.73;;
15905;SDS011;8051;50.820;4.884;2023-04-24T07:30:56;30.73;;;25.80;;
15905;SDS011;8051;50.820;4.884;2023-04-24T07:33:25;36.10;;;27.73;;
15905;SDS011;8051;50.820;4.884;2023-04-24T07:35:52;34.00;;;26.00;;
15905;SDS011;8051;50.820;4.884;2023-04-24T07:38:20;31.60;;;26.13;;
15905;SDS011;8051;50.820;4.884;2023-04-24T07:40:47;30.13;;;25.00;;
15905;SDS011;8051;50.820;4.884;2023-04-24T07:43:16;39.50;;;28.17;;
15905;SDS011;8051;50.820;4.884;2023-04-24T07:45:44;37.07;;;27.87;;
15905;SDS011;8051;50.820;4.884;2023-04-24T07:48:11;32.73;;;28.57;;
15905;SDS011;8051;50.820;4.884;2023-04-24T07:50:41;30.97;;;27.53;;
15905;SDS011;8051;50.820;4.884;2023-04-24T07:53:08;35.23;;;28.23;;
15905;SDS011;8051;50.820;4.884;2023-04-24T07:55:36;36.13;;;28.80;;
15905;SDS011;8051;50.820;4.884;2023-04-24T07:58:04;35.80;;;29.30;;
15905;SDS011;8051;50.820;4.884;2023-04-24T08:00:32;34.90;;;28.37;;
15905;SDS011;8051;50.820;4.884;2023-04-24T08:03:00;33.23;;;27.50;;
15905;SDS011;8051;50.820;4.884;2023-04-24T08:05:28;29.23;;;25.93;;
15905;SDS011;8051;50.820;4.884;2023-04-24T08:07:55;30.37;;;25.83;;
15905;SDS011;8051;50.820;4.884;2023-04-24T08:10:23;26.77;;;24.07;;
15905;SDS011;8051;50.820;4.884;2023-04-24T08:12:51;28.37;;;25.33;;
15905;SDS011;8051;50.820;4.884;2023-04-24T08:15:20;27.33;;;24.37;;
15905;SDS011;8051;50.820;4.884;2023-04-24T08:17:49;26.50;;;24.00;;
15905;SDS011;8051;50.820;4.884;2023-04-24T08:20:17;29.40;;;26.43;;
15905;SDS011;8051;50.820;4.884;2023-04-24T08:22:44;27.27;;;24.67;;
15905;SDS011;8051;50.820;4.884;2023-04-24T08:25:14;28.30;;;24.33;;
15905;SDS011;8051;50.820;4.884;2023-04-24T08:27:41;26.17;;;23.60;;
15905;SDS011;8051;50.820;4.884;2023-04-24T08:30:09;28.63;;;22.33;;
15905;SDS011;8051;50.820;4.884;2023-04-24T08:32:37;34.43;;;23.63;;
15905;SDS011;8051;50.820;4.884;2023-04-24T08:35:06;24.37;;;22.03;;
15905;SDS011;8051;50.820;4.884;2023-04-24T08:37:35;24.17;;;21.63;;
15905;SDS011;8051;50.820;4.884;2023-04-24T08:40:04;24.33;;;22.13;;
15905;SDS011;8051;50.820;4.884;2023-04-24T08:42:38;25.53;;;22.37;;
15905;SDS011;8051;50.820;4.884;2023-04-24T08:45:09;25.07;;;22.63;;
15905;SDS011;8051;50.820;4.884;2023-04-24T08:47:37;24.80;;;22.27;;
15905;SDS011;8051;50.820;4.884;2023-04-24T08:50:08;23.40;;;21.40;;
15905;SDS011;8051;50.820;4.884;2023-04-24T08:52:37;24.50;;;22.20;;
15905;SDS011;8051;50.820;4.884;2023-04-24T08:55:05;26.87;;;24.43;;
15905;SDS011;8051;50.820;4.884;2023-04-24T08:57:33;26.30;;;23.13;;
15905;SDS011;8051;50.820;4.884;2023-04-24T09:00:03;23.03;;;20.43;;
15905;SDS011;8051;50.820;4.884;2023-04-24T09:02:33;26.50;;;23.67;;
15905;SDS011;8051;50.820;4.884;2023-04-24T09:05:00;22.87;;;20.50;;
15905;SDS011;8051;50.820;4.884;2023-04-24T09:07:31;25.50;;;22.40;;
15905;SDS011;8051;50.820;4.884;2023-04-24T09:10:02;24.70;;;22.23;;
15905;SDS011;8051;50.820;4.884;2023-04-24T09:12:30;27.17;;;22.27;;
15905;SDS011;8051;50.820;4.884;2023-04-24T09:14:57;22.60;;;20.60;;
15905;SDS011;8051;50.820;4.884;2023-04-24T09:17:26;23.90;;;21.57;;
15905;SDS011;8051;50.820;4.884;2023-04-24T09:19:54;23.80;;;20.93;;
15905;SDS011;8051;50.820;4.884;2023-04-24T09:22:22;27.10;;;24.60;;
15905;SDS011;8051;50.820;4.884;2023-04-24T09:25:00;23.90;;;21.90;;
15905;SDS011;8051;50.820;4.884;2023-04-24T09:27:31;21.93;;;19.93;;
15905;SDS011;8051;50.820;4.884;2023-04-24T09:30:00;20.87;;;19.00;;
15905;SDS011;8051;50.820;4.884;2023-04-24T09:32:27;20.93;;;19.27;;
15905;SDS011;8051;50.820;4.884;2023-04-24T09:35:09;21.57;;;19.90;;
15905;SDS011;8051;50.820;4.884;2023-04-24T09:37:39;24.00;;;21.60;;
15905;SDS011;8051;50.820;4.884;2023-04-24T09:40:10;21.97;;;20.03;;
15905;SDS011;8051;50.820;4.884;2023-04-24T09:42:39;24.33;;;21.47;;
15905;SDS011;8051;50.820;4.884;2023-04-24T09:45:09;22.63;;;20.77;;
15905;SDS011;8051;50.820;4.884;2023-04-24T09:47:37;23.20;;;21.00;;
15905;SDS011;8051;50.820;4.884;2023-04-24T09:50:09;25.17;;;22.93;;
15905;SDS011;8051;50.820;4.884;2023-04-24T09:52:39;24.03;;;22.03;;
15905;SDS011;8051;50.820;4.884;2023-04-24T09:55:13;21.90;;;19.77;;
15905;SDS011;8051;50.820;4.884;2023-04-24T09:57:49;21.60;;;19.97;;
15905;SDS011;8051;50.820;4.884;2023-04-24T10:00:18;21.03;;;19.43;;
15905;SDS011;8051;50.820;4.884;2023-04-24T10:02:54;23.00;;;20.87;;
15905;SDS011;8051;50.820;4.884;2023-04-24T10:05:23;21.93;;;20.37;;
15905;SDS011;8051;50.820;4.884;2023-04-24T10:07:51;21.50;;;19.90;;
15905;SDS011;8051;50.820;4.884;2023-04-24T10:10:23;21.70;;;19.53;;
15905;SDS011;8051;50.820;4.884;2023-04-24T10:12:51;19.30;;;18.00;;
15905;SDS011;8051;50.820;4.884;2023-04-24T10:15:20;20.43;;;18.30;;
15905;SDS011;8051;50.820;4.884;2023-04-24T10:17:47;19.93;;;18.23;;
15905;SDS011;8051;50.820;4.884;2023-04-24T10:20:18;22.47;;;20.57;;
15905;SDS011;8051;50.820;4.884;2023-04-24T10:22:47;22.03;;;20.33;;
15905;SDS011;8051;50.820;4.884;2023-04-24T10:25:19;22.00;;;19.90;;
15905;SDS011;8051;50.820;4.884;2023-04-24T10:27:49;22.43;;;20.70;;
15905;SDS011;8051;50.820;4.884;2023-04-24T10:30:18;21.90;;;20.20;;
15905;SDS011;8051;50.820;4.884;2023-04-24T10:32:46;21.60;;;19.93;;
15905;SDS011;8051;50.820;4.884;2023-04-24T10:35:14;21.40;;;19.70;;
15905;SDS011;8051;50.820;4.884;2023-04-24T10:37:45;22.00;;;19.93;;
15905;SDS011;8051;50.820;4.884;2023-04-24T10:40:16;21.93;;;20.33;;
15905;SDS011;8051;50.820;4.884;2023-04-24T10:42:47;20.97;;;19.37;;
15905;SDS011;8051;50.820;4.884;2023-04-24T10:45:19;22.93;;;21.10;;
15905;SDS011;8051;50.820;4.884;2023-04-24T10:47:51;22.90;;;21.10;;
15905;SDS011;8051;50.820;4.884;2023-04-24T10:50:19;20.63;;;19.30;;
15905;SDS011;8051;50.820;4.884;2023-04-24T10:52:47;21.50;;;19.80;;
15905;SDS011;8051;50.820;4.884;2023-04-24T10:55:32;21.27;;;19.50;;
15905;SDS011;8051;50.820;4.884;2023-04-24T10:58:07;21.07;;;19.37;;
15905;SDS011;8051;50.820;4.884;2023-04-24T11:00:37;20.33;;;18.83;;
15905;SDS011;8051;50.820;4.884;2023-04-24T11:03:05;17.77;;;16.50;;
15905;SDS011;8051;50.820;4.884;2023-04-24T11:05:49;20.53;;;18.97;;
15905;SDS011;8051;50.820;4.884;2023-04-24T11:08:25;19.37;;;18.00;;
15905;SDS011;8051;50.820;4.884;2023-04-24T11:10:55;19.33;;;17.90;;
15905;SDS011;8051;50.820;4.884;2023-04-24T11:13:24;21.10;;;19.70;;
15905;SDS011;8051;50.820;4.884;2023-04-24T11:18:41;20.10;;;18.90;;
15905;SDS011;8051;50.820;4.884;2023-04-24T11:21:16;19.90;;;18.37;;
15905;SDS011;8051;50.820;4.884;2023-04-24T11:23:44;20.60;;;18.93;;
15905;SDS011;8051;50.820;4.884;2023-04-24T11:26:12;21.97;;;20.37;;
15905;SDS011;8051;50.820;4.884;2023-04-24T11:28:44;20.83;;;19.03;;
15905;SDS011;8051;50.820;4.884;2023-04-24T11:34:07;20.50;;;19.00;;
15905;SDS011;8051;50.820;4.884;2023-04-24T11:36:36;20.60;;;19.10;;
15905;SDS011;8051;50.820;4.884;2023-04-24T11:39:03;19.33;;;17.83;;
15905;SDS011;8051;50.820;4.884;2023-04-24T11:41:31;22.13;;;20.20;;
15905;SDS011;8051;50.820;4.884;2023-04-24T11:44:00;21.93;;;20.33;;
15905;SDS011;8051;50.820;4.884;2023-04-24T11:46:29;21.17;;;19.67;;
15905;SDS011;8051;50.820;4.884;2023-04-24T11:48:58;22.43;;;20.77;;
15905;SDS011;8051;50.820;4.884;2023-04-24T11:51:26;22.23;;;20.83;;
15905;SDS011;8051;50.820;4.884;2023-04-24T11:53:55;22.23;;;20.83;;
15905;SDS011;8051;50.820;4.884;2023-04-24T11:56:22;23.03;;;21.53;;
15905;SDS011;8051;50.820;4.884;2023-04-24T11:58:51;23.33;;;21.57;;
15905;SDS011;8051;50.820;4.884;2023-04-24T12:01:20;21.53;;;20.00;;
15905;SDS011;8051;50.820;4.884;2023-04-24T12:03:48;22.40;;;20.70;;
15905;SDS011;8051;50.820;4.884;2023-04-24T12:06:18;22.47;;;20.60;;
15905;SDS011;8051;50.820;4.884;2023-04-24T12:08:46;22.17;;;20.43;;
15905;SDS011;8051;50.820;4.884;2023-04-24T12:11:15;20.97;;;19.67;;
15905;SDS011;8051;50.820;4.884;2023-04-24T12:13:45;22.33;;;20.37;;
15905;SDS011;8051;50.820;4.884;2023-04-24T12:16:13;22.50;;;20.77;;
15905;SDS011;8051;50.820;4.884;2023-04-24T12:18:44;19.37;;;17.97;;
15905;SDS011;8051;50.820;4.884;2023-04-24T12:21:15;18.83;;;17.43;;
15905;SDS011;8051;50.820;4.884;2023-04-24T12:23:45;20.17;;;18.63;;
15905;SDS011;8051;50.820;4.884;2023-04-24T12:26:14;20.87;;;19.53;;
15905;SDS011;8051;50.820;4.884;2023-04-24T12:28:45;19.13;;;17.70;;
15905;SDS011;8051;50.820;4.884;2023-04-24T12:31:13;19.37;;;17.87;;
15905;SDS011;8051;50.820;4.884;2023-04-24T12:33:40;19.77;;;18.10;;
15905;SDS011;8051;50.820;4.884;2023-04-24T12:36:09;20.83;;;19.37;;
15905;SDS011;8051;50.820;4.884;2023-04-24T12:38:38;19.93;;;18.73;;
15905;SDS011;8051;50.820;4.884;2023-04-24T12:41:11;18.83;;;17.50;;
15905;SDS011;8051;50.820;4.884;2023-04-24T12:43:50;21.00;;;19.50;;
15905;SDS011;8051;50.820;4.884;2023-04-24T12:46:18;20.20;;;18.63;;
15905;SDS011;8051;50.820;4.884;2023-04-24T12:48:46;18.97;;;17.47;;
15905;SDS011;8051;50.820;4.884;2023-04-24T12:51:13;20.07;;;18.77;;
15905;SDS011;8051;50.820;4.884;2023-04-24T12:53:40;19.13;;;17.67;;
15905;SDS011;8051;50.820;4.884;2023-04-24T12:56:08;20.60;;;19.10;;
15905;SDS011;8051;50.820;4.884;2023-04-24T12:58:37;22.83;;;21.03;;
15905;SDS011;8051;50.820;4.884;2023-04-24T13:01:04;20.10;;;18.73;;
15905;SDS011;8051;50.820;4.884;2023-04-24T13:03:32;18.47;;;17.07;;
15905;SDS011;8051;50.820;4.884;2023-04-24T13:05:59;20.70;;;19.30;;
15905;SDS011;8051;50.820;4.884;2023-04-24T13:08:27;19.33;;;17.87;;
15905;SDS011;8051;50.820;4.884;2023-04-24T13:10:54;21.03;;;19.57;;
15905;SDS011;8051;50.820;4.884;2023-04-24T13:13:22;21.30;;;19.70;;
15905;SDS011;8051;50.820;4.884;2023-04-24T13:15:51;22.13;;;20.47;;
15905;SDS011;8051;50.820;4.884;2023-04-24T13:18:18;19.80;;;18.47;;
15905;SDS011;8051;50.820;4.884;2023-04-24T13:20:45;18.67;;;17.33;;
15905;SDS011;8051;50.820;4.884;2023-04-24T13:23:13;20.20;;;18.60;;
15905;SDS011;8051;50.820;4.884;2023-04-24T13:25:41;18.17;;;16.87;;
15905;SDS011;8051;50.820;4.884;2023-04-24T13:28:08;18.17;;;16.70;;
15905;SDS011;8051;50.820;4.884;2023-04-24T13:30:36;17.80;;;16.70;;
15905;SDS011;8051;50.820;4.884;2023-04-24T13:33:05;19.00;;;17.50;;
15905;SDS011;8051;50.820;4.884;2023-04-24T13:35:32;19.30;;;17.97;;
15905;SDS011;8051;50.820;4.884;2023-04-24T13:38:00;17.60;;;16.40;;
15905;SDS011;8051;50.820;4.884;2023-04-24T13:40:31;20.00;;;18.37;;
15905;SDS011;8051;50.820;4.884;2023-04-24T13:42:58;18.90;;;17.70;;
15905;SDS011;8051;50.820;4.884;2023-04-24T13:45:26;19.40;;;18.03;;
15905;SDS011;8051;50.820;4.884;2023-04-24T13:47:53;18.27;;;17.17;;
15905;SDS011;8051;50.820;4.884;2023-04-24T13:50:23;17.03;;;15.83;;
15905;SDS011;8051;50.820;4.884;2023-04-24T13:52:50;16.53;;;15.53;;
15905;SDS011;8051;50.820;4.884;2023-04-24T13:55:19;17.47;;;16.17;;
15905;SDS011;8051;50.820;4.884;2023-04-24T13:57:46;19.40;;;18.27;;
15905;SDS011;8051;50.820;4.884;2023-04-24T14:00:14;18.83;;;17.50;;
15905;SDS011;8051;50.820;4.884;2023-04-24T14:02:43;20.60;;;19.30;;
15905;SDS011;8051;50.820;4.884;2023-04-24T14:05:10;21.10;;;19.60;;
15905;SDS011;8051;50.820;4.884;2023-04-24T14:07:39;19.00;;;17.50;;
15905;SDS011;8051;50.820;4.884;2023-04-24T14:10:07;18.10;;;16.80;;
15905;SDS011;8051;50.820;4.884;2023-04-24T14:12:35;17.43;;;16.40;;
15905;SDS011;8051;50.820;4.884;2023-04-24T14:15:03;17.77;;;16.63;;
15905;SDS011;8051;50.820;4.884;2023-04-24T14:17:31;19.00;;;17.70;;
15905;SDS011;8051;50.820;4.884;2023-04-24T14:19:58;17.20;;;15.80;;
15905;SDS011;8051;50.820;4.884;2023-04-24T14:22:26;17.47;;;16.43;;
15905;SDS011;8051;50.820;4.884;2023-04-24T14:24:55;16.73;;;15.57;;
15905;SDS011;8051;50.820;4.884;2023-04-24T14:27:23;15.73;;;14.93;;
15905;SDS011;8051;50.820;4.884;2023-04-24T14:29:51;17.03;;;16.13;;
15905;SDS011;8051;50.820;4.884;2023-04-24T14:32:18;18.70;;;17.00;;
15905;SDS011;8051;50.820;4.884;2023-04-24T14:34:46;17.97;;;16.67;;
15905;SDS011;8051;50.820;4.884;2023-04-24T14:37:13;18.47;;;17.20;;
15905;SDS011;8051;50.820;4.884;2023-04-24T14:39:41;19.37;;;17.77;;
15905;SDS011;8051;50.820;4.884;2023-04-24T14:42:10;18.30;;;17.10;;
15905;SDS011;8051;50.820;4.884;2023-04-24T14:44:38;18.40;;;17.30;;
15905;SDS011;8051;50.820;4.884;2023-04-24T14:47:06;19.37;;;18.03;;